Airport ID:KTME
Update Time (UTC):19/08/2018 11:12
Wind Speed (Knots):5
Wind Direction (Magnetic):190
Temperature (°C):25.1
Dew Point (°C):24.7
Humidity (%):97.7
Altimeter (inHg):29.93
Density Altitude (Feet):01800
Visibility (Miles):7
Clouds (Hundreds of feet):CLR
Present Weather:
METAR:METAR KTME 191110Z AUTO 20005KT 7SM CLR 25/25 A2993 RMK AO2

The data displayed is for advisory purposes only and is not to be used for flight planning or operations.

This page is not automatically refreshed. Reload the page to see current data.